WetterOnline ( http://www.wetteronline.ch )

Wetter aktuell Arkona

Aktuelles Wetter: Kap Arkona/Rügen (42m)

6-stündlich | Neueste Meldungen
Ortszeit Temperatur Wetter
Mi, 20.02. 13:00 6.4° C bewölkt
Mi, 20.02. 7:00 4.7° C bewölkt
Mi, 20.02. 1:00 4.4° C leicht bewölkt
Di, 19.02. 19:00 5.2° C wolkig
Di, 19.02. 13:00 7.3° C bewölkt
Di, 19.02. 7:00 4.7° C wolkig
Di, 19.02. 1:00 4.6° C bewölkt
Mo, 18.02. 19:00 7.6° C wolkenlos
Ortszeit Temperatur Wetter
Mi, 20.02. 14:30 6.7° C wolkenlos
Mi, 20.02. 14:20 6.7° C wolkenlos
Mi, 20.02. 14:10 7.0° C wolkenlos
Mi, 20.02. 14:00 7.0° C leicht bewölkt
Mi, 20.02. 13:50 7.0° C leicht bewölkt
Mi, 20.02. 13:40 6.9° C wolkig
Mi, 20.02. 13:30 6.8° C wolkig
Mi, 20.02. 13:00 6.4° C bewölkt
Mi, 20.02. 12:30 6.2° C leicht bewölkt
Mi, 20.02. 12:00 6.4° C leicht bewölkt
Mi, 20.02. 11:30 6.5° C wolkig
Ortszeit Relative Feuchte Sichtweite
Mi, 20.02. 13:00 87% 12 km
Mi, 20.02. 7:00 89% 26 km
Mi, 20.02. 1:00 93% 18 km
Di, 19.02. 19:00 91% 17 km
Di, 19.02. 13:00 82% 19 km
Di, 19.02. 7:00 81% 13 km
Di, 19.02. 1:00 80% 13 km
Mo, 18.02. 19:00 79% 12 km
Ortszeit Relative Feuchte Sichtweite
Mi, 20.02. 14:30 86% 10 km
Mi, 20.02. 14:20 86% -
Mi, 20.02. 14:10 85% -
Mi, 20.02. 14:00 84% 11 km
Mi, 20.02. 13:50 84% -
Mi, 20.02. 13:40 84% -
Mi, 20.02. 13:30 84% 12 km
Mi, 20.02. 13:00 87% 12 km
Mi, 20.02. 12:30 88% 10 km
Mi, 20.02. 12:00 86% 16 km
Mi, 20.02. 11:30 85% 15 km
Ortszeit Niederschlagsmenge Niederschlagsart
Mi, 20.02. 13:00 0.0 l/m2 in 6 Std. -
Mi, 20.02. 7:00 0.1 l/m2 in 12 Std. Regen
Mi, 20.02. 1:00 0.0 l/m2 in 6 Std. -
Di, 19.02. 19:00 0.5 l/m2 in 12 Std. Regen
Di, 19.02. 13:00 0.5 l/m2 in 6 Std. Regen
Di, 19.02. 7:00 0.0 l/m2 in 12 Std. -
Di, 19.02. 1:00 0.0 l/m2 in 6 Std. -
Mo, 18.02. 19:00 0.0 l/m2 in 12 Std. -
Ortszeit Niederschlagsmenge Niederschlagsart
Mi, 20.02. 14:30 0.0 l/m2 in 1 Std. -
Mi, 20.02. 14:20 keine Meldung -
Mi, 20.02. 14:10 keine Meldung -
Mi, 20.02. 14:00 0.0 l/m2 in 1 Std. -
Mi, 20.02. 13:50 keine Meldung -
Mi, 20.02. 13:40 keine Meldung -
Mi, 20.02. 13:30 0.0 l/m2 in 1 Std. -
Mi, 20.02. 13:00 0.0 l/m2 in 1 Std. -
Mi, 20.02. 12:30 0.0 l/m2 in 1 Std. -
Mi, 20.02. 12:00 0.0 l/m2 in 1 Std. -
Mi, 20.02. 11:30 0.0 l/m2 in 1 Std. -
Ortszeit Stärke Spitze Richtung
km/h Bft. km/h Grad Sektor
Mi, 20.02. 13:00 43 6 58 260° W
Mi, 20.02. 7:00 47 6 68 260° W
Mi, 20.02. 1:00 50 7 68 250° W
Di, 19.02. 19:00 50 7 72 250° W
Di, 19.02. 13:00 43 6 59 240° SW
Di, 19.02. 7:00 28 4 37 240° SW
Di, 19.02. 1:00 26 4 28 220° SW
Mo, 18.02. 19:00 18 3 22 180° S
Ortszeit Stärke Spitze Richtung
km/h Bft. km/h Grad Sektor
Mi, 20.02. 14:30 36 5 50 250° W
Mi, 20.02. 14:20 36 5 - 250° W
Mi, 20.02. 14:10 36 5 - 260° W
Mi, 20.02. 14:00 35 5 54 260° W
Mi, 20.02. 13:50 35 5 - 260° W
Mi, 20.02. 13:40 40 6 - 260° W
Mi, 20.02. 13:30 41 6 54 260° W
Mi, 20.02. 13:00 43 6 58 260° W
Mi, 20.02. 12:30 47 6 58 260° W
Mi, 20.02. 12:00 40 6 50 260° W
Mi, 20.02. 11:30 40 6 50 260° W
Ortszeit Untergrenze Bedeckung Gattung
total tief tief mittel hoch
Mi, 20.02. 13:00 1050 m 7/8 7/8 - - -
Mi, 20.02. 7:00 990 m 8/8 5/8 - - -
Mi, 20.02. 1:00 240 m 1/8 3/8 - - -
Di, 19.02. 19:00 90 m 5/8 5/8 - - -
Di, 19.02. 13:00 570 m 8/8 7/8 - - -
Di, 19.02. 7:00 1350 m 8/8 3/8 - - -
Di, 19.02. 1:00 6000 m 8/8 7/8 - - -
Mo, 18.02. 19:00 - 0/8 0/8 - - -
Ortszeit Bedeckungsgrad in Achtel und Wolkenuntergrenze
Mi, 20.02. 14:30 keine Wolken
Mi, 20.02. 14:20 keine Wolken
Mi, 20.02. 14:10 keine Wolken
Mi, 20.02. 14:00 2(5700m) 3(10500m)
Mi, 20.02. 13:50 2(5700m) 3(10500m)
Mi, 20.02. 13:40 4(5700m) 6(10500m)
Mi, 20.02. 13:30 5(1050m) 7(5700m)
Mi, 20.02. 13:00 7(1050m) 7(6000m)
Mi, 20.02. 12:30 3(1110m) 5(1110m) 5(6000m)
Mi, 20.02. 12:00 2(1110m)
Mi, 20.02. 11:30 1(5400m) 7(8400m)
Ortszeit Luftdruck NN (hPa) Tendenz (hPa in 3 Std.)
Mi, 20.02. 13:00 1018 + 1,3
Mi, 20.02. 7:00 1014 + 1,3
Mi, 20.02. 1:00 1012 + 0,9
Di, 19.02. 19:00 1010 0,0
Di, 19.02. 13:00 1010 - 0,2
Di, 19.02. 7:00 1009 - 1,1
Di, 19.02. 1:00 1013 - 1,7
Mo, 18.02. 19:00 1016 - 0,9
Ortszeit Luftdruck NN (hPa) Tendenz (hPa in 3 Std.)
Mi, 20.02. 14:30 1019 + 1,2
Mi, 20.02. 14:20 1019 keine Meldung
Mi, 20.02. 14:10 1019 keine Meldung
Mi, 20.02. 14:00 1018 + 1,1
Mi, 20.02. 13:50 1018 keine Meldung
Mi, 20.02. 13:40 1018 keine Meldung
Mi, 20.02. 13:30 1018 + 1,1
Mi, 20.02. 13:00 1018 + 1,3
Mi, 20.02. 12:30 1018 + 1,5
Mi, 20.02. 12:00 1018 + 1,9
Mi, 20.02. 11:30 1018 + 2,1
Ortszeit Schneehöhe (cm)
Mi, 20.02. 13:00 0
Mi, 20.02. 7:00 0
Mi, 20.02. 1:00 0
Di, 19.02. 19:00 0
Di, 19.02. 13:00 0
Di, 19.02. 7:00 0
Di, 19.02. 1:00 0
Mo, 18.02. 19:00 0
Ortszeit Schneehöhe (cm)
Mi, 20.02. 14:30 0
Mi, 20.02. 14:20 0
Mi, 20.02. 14:10 0
Mi, 20.02. 14:00 0
Mi, 20.02. 13:50 0
Mi, 20.02. 13:40 0
Mi, 20.02. 13:30 0
Mi, 20.02. 13:00 0
Mi, 20.02. 12:30 0
Mi, 20.02. 12:00 0
Mi, 20.02. 11:30 0
Link zu dieser Seite / Seite empfehlen

Das Wetter in ...